KPNC

Ponca City Regional Airport

Ponca City, Oklahoma, USA
METAR KPNC 190653Z AUTO 18010G19KT 9SM CLR 01/M11 A3010 RMK AO2 SLP194 T00111106
Observed Flight Rules
Jan-19 @ 06:53 UTC (25 minutes ago) Visual Flight Rules
Wind Visibility Clouds
180° at 10 knots
 Gusting to 19 knots
9 miles
  • Clear skies
Temperatures Readings
Current 1°C / 34°F
Dewpoint -11°C / 12°F
Humidity 41%
Altimeter 30.1" Hg
Pressure 1019.4 hPa
Elevation 308
METAR KPNC 190653Z AUTO 18010G19KT 9SM CLR 01/M11 A3010 RMK AO2 SLP194 T00111106
Observed Flight Rules
Jan-19 @ 06:53 UTC
(25 minutes ago)
VFR
Wind Visibility
180° at 10 knots
 Gusting to 19 knots
9 miles
Clouds
  • Clear skies
Temperature Dewpoint
1°C / 34°F -11°C / 12°F
Humidity Altimeter Pressure
41% 30.1" Hg 1019.4 hPa